createdAt,value
2022-09-14T00:01:26.873Z,3.50
2022-09-14T00:04:08.465Z,10.75
2022-09-14T00:06:35.334Z,6.87
2022-09-14T00:09:03.648Z,4.70
2022-09-14T00:11:31.832Z,4.00
2022-09-14T00:13:59.836Z,3.33
2022-09-14T00:16:29.336Z,3.78
2022-09-14T00:19:00.562Z,3.80
2022-09-14T00:21:29.157Z,3.42
2022-09-14T00:23:55.874Z,3.58
2022-09-14T00:26:23.514Z,3.83
2022-09-14T00:28:52.501Z,4.07
2022-09-14T00:31:20.704Z,3.83
2022-09-14T00:33:49.241Z,4.88
2022-09-14T00:36:27.983Z,4.57
2022-09-14T00:39:00.549Z,4.47
2022-09-14T00:41:32.936Z,4.10
2022-09-14T00:44:02.616Z,6.87
2022-09-14T00:46:44.757Z,5.60
2022-09-14T00:49:24.104Z,4.63
2022-09-14T00:51:59.759Z,4.20
2022-09-14T00:54:27.048Z,3.95
2022-09-14T00:56:54.740Z,4.10
2022-09-14T00:59:28.919Z,4.10
2022-09-14T01:01:55.802Z,4.22
2022-09-14T01:04:23.495Z,4.05
2022-09-14T01:07:06.557Z,4.03
2022-09-14T01:09:39.233Z,3.83
2022-09-14T01:12:26.639Z,3.80
2022-09-14T01:15:31.968Z,3.80
2022-09-14T01:17:58.480Z,4.18
2022-09-14T01:20:33.982Z,4.13
2022-09-14T01:23:18.616Z,16.53
2022-09-14T01:26:03.922Z,4.53
2022-09-14T01:28:57.538Z,4.30
2022-09-14T01:31:56.753Z,3.85
2022-09-14T01:34:34.173Z,4.07
2022-09-14T01:37:13.323Z,4.17
2022-09-14T01:39:56.790Z,4.10
2022-09-14T01:42:26.615Z,4.55
2022-09-14T01:44:57.450Z,4.45
2022-09-14T01:47:36.930Z,4.57
2022-09-14T01:50:10.501Z,4.67
2022-09-14T01:52:48.596Z,4.40
2022-09-14T01:55:31.689Z,4.68
2022-09-14T01:58:09.231Z,4.75
2022-09-14T02:00:41.428Z,4.05
2022-09-14T02:03:23.880Z,4.40
2022-09-14T02:06:02.573Z,4.32
2022-09-14T02:08:31.266Z,4.50
2022-09-14T02:10:58.991Z,4.45
2022-09-14T02:13:26.495Z,4.40
2022-09-14T02:15:53.363Z,4.60
2022-09-14T02:18:20.740Z,4.35
2022-09-14T02:20:53.400Z,4.38
2022-09-14T02:23:20.157Z,4.43
2022-09-14T02:25:47.429Z,4.40
2022-09-14T02:28:14.321Z,4.40
2022-09-14T02:31:12.768Z,4.43
2022-09-14T02:33:43.681Z,4.60
2022-09-14T02:36:51.702Z,4.03
2022-09-14T02:39:35.545Z,4.50
2022-09-14T02:42:17.181Z,4.53
2022-09-14T02:44:55.943Z,4.50
2022-09-14T02:47:46.663Z,4.88
2022-09-14T02:50:27.214Z,4.60
2022-09-14T02:53:08.072Z,5.05
2022-09-14T02:55:39.413Z,5.00
2022-09-14T02:58:13.984Z,4.68
2022-09-14T03:00:43.311Z,4.65
2022-09-14T03:03:12.263Z,4.38
2022-09-14T03:05:39.178Z,4.30
2022-09-14T03:08:06.479Z,4.47
2022-09-14T03:10:33.351Z,4.30
2022-09-14T03:13:00.523Z,4.40
2022-09-14T03:15:28.124Z,4.18
2022-09-14T03:17:54.800Z,4.43
2022-09-14T03:20:24.612Z,4.40
2022-09-14T03:22:51.539Z,4.57
2022-09-14T03:25:23.033Z,4.70
2022-09-14T03:27:51.016Z,5.15
2022-09-14T03:30:18.738Z,4.60
2022-09-14T03:32:45.776Z,4.77
2022-09-14T03:35:13.229Z,5.18
2022-09-14T03:37:41.540Z,5.05
2022-09-14T03:40:10.516Z,4.93
2022-09-14T03:42:37.273Z,4.80
2022-09-14T03:45:04.466Z,4.50
2022-09-14T03:47:31.305Z,4.82
2022-09-14T03:49:58.056Z,4.40
2022-09-14T03:52:24.760Z,4.90
2022-09-14T03:54:51.441Z,4.90
2022-09-14T03:57:18.196Z,4.80
2022-09-14T03:59:44.876Z,4.65
2022-09-14T04:02:11.651Z,5.40
2022-09-14T04:04:38.393Z,5.20
2022-09-14T04:07:05.085Z,5.55
2022-09-14T04:09:31.831Z,5.40
2022-09-14T04:11:58.526Z,5.75
2022-09-14T04:14:25.318Z,5.55
2022-09-14T04:16:51.998Z,4.60
2022-09-14T04:19:18.740Z,5.10
2022-09-14T04:21:45.817Z,4.83
2022-09-14T04:24:16.404Z,4.68
2022-09-14T04:26:44.557Z,5.45
2022-09-14T04:29:12.768Z,5.20
2022-09-14T04:31:39.472Z,4.88
2022-09-14T04:34:06.695Z,4.77
2022-09-14T04:36:33.799Z,4.60
2022-09-14T04:39:02.708Z,4.68
2022-09-14T04:41:30.734Z,4.95
2022-09-14T04:43:58.449Z,4.57
2022-09-14T04:46:31.284Z,4.77
2022-09-14T04:48:58.756Z,5.32
2022-09-14T04:51:27.889Z,5.55
2022-09-14T04:53:56.497Z,6.80
2022-09-14T04:56:24.217Z,5.72
2022-09-14T04:58:56.175Z,5.17
2022-09-14T05:01:25.683Z,5.30
2022-09-14T05:03:53.312Z,5.63
2022-09-14T05:06:26.298Z,5.68
2022-09-14T05:08:54.229Z,5.05
2022-09-14T05:11:25.424Z,4.83
2022-09-14T05:13:52.365Z,5.60
2022-09-14T05:16:21.669Z,5.35
2022-09-14T05:18:49.057Z,5.25
2022-09-14T05:21:17.914Z,5.07
2022-09-14T05:23:44.762Z,5.40
2022-09-14T05:26:12.029Z,19.65
2022-09-14T05:28:38.767Z,10.70
2022-09-14T05:31:07.710Z,6.18
2022-09-14T05:33:35.213Z,7.80
2022-09-14T05:36:03.718Z,8.30
2022-09-14T05:38:31.935Z,7.68
2022-09-14T05:40:58.546Z,7.38
2022-09-14T05:43:25.856Z,5.38
2022-09-14T05:45:52.572Z,5.43
2022-09-14T05:48:19.718Z,6.60
2022-09-14T05:50:47.347Z,6.20
2022-09-14T05:53:14.117Z,5.78
2022-09-14T05:55:40.800Z,5.90
2022-09-14T05:58:07.390Z,14.32
2022-09-14T06:00:34.079Z,5.80
2022-09-14T06:03:00.690Z,6.53
2022-09-14T06:05:28.219Z,5.78
2022-09-14T06:07:54.954Z,6.72
2022-09-14T06:10:22.081Z,5.05
2022-09-14T06:12:51.269Z,6.40
2022-09-14T06:15:24.551Z,5.72
2022-09-14T06:17:51.205Z,5.00
2022-09-14T06:20:18.812Z,4.80
2022-09-14T06:22:45.479Z,4.30
2022-09-14T06:25:12.181Z,4.40
2022-09-14T06:27:38.898Z,4.30
2022-09-14T06:30:06.143Z,4.03
2022-09-14T06:32:32.777Z,3.95
2022-09-14T06:34:59.565Z,3.67
2022-09-14T06:37:26.182Z,3.43
2022-09-14T06:39:53.029Z,3.17
2022-09-14T06:42:19.614Z,3.50
2022-09-14T06:44:47.553Z,4.60
2022-09-14T06:47:14.173Z,4.22
2022-09-14T06:49:40.843Z,3.97
2022-09-14T06:52:07.445Z,4.43
2022-09-14T06:54:34.210Z,4.47
2022-09-14T06:57:00.809Z,4.68
2022-09-14T06:59:27.453Z,4.35
2022-09-14T07:01:54.265Z,4.87
2022-09-14T07:04:21.549Z,4.70
2022-09-14T07:06:49.928Z,4.60
2022-09-14T07:09:18.812Z,4.50
2022-09-14T07:11:46.058Z,4.32
2022-09-14T07:14:12.745Z,4.30
2022-09-14T07:16:40.368Z,4.43
2022-09-14T07:19:11.580Z,4.10
2022-09-14T07:21:38.475Z,4.03
2022-09-14T07:24:05.729Z,4.40
2022-09-14T07:26:39.559Z,4.93
2022-09-14T07:29:10.036Z,4.15
2022-09-14T07:31:40.682Z,3.72
2022-09-14T07:34:08.034Z,3.40
2022-09-14T07:36:36.069Z,3.25
2022-09-14T07:39:05.515Z,3.17
2022-09-14T07:41:34.176Z,2.80
2022-09-14T07:44:02.645Z,2.83
2022-09-14T07:46:33.050Z,2.53
2022-09-14T07:49:01.697Z,2.38
2022-09-14T07:51:29.777Z,2.27
2022-09-14T07:53:57.142Z,2.50
2022-09-14T07:56:25.605Z,2.67
2022-09-14T07:59:11.381Z,2.60
2022-09-14T08:01:44.180Z,2.45
2022-09-14T08:04:11.097Z,2.50
2022-09-14T08:06:37.865Z,2.33
2022-09-14T08:09:10.903Z,2.70
2022-09-14T08:11:38.584Z,2.70
2022-09-14T08:14:09.919Z,2.50
2022-09-14T08:16:38.699Z,2.80
2022-09-14T08:19:10.716Z,2.47
2022-09-14T08:21:37.429Z,2.45
2022-09-14T08:24:04.736Z,2.83
2022-09-14T08:26:31.690Z,2.35
2022-09-14T08:29:00.460Z,2.57
2022-09-14T08:31:28.839Z,2.63
2022-09-14T08:34:03.689Z,2.63
2022-09-14T08:36:36.137Z,2.72
2022-09-14T08:39:03.783Z,2.85
2022-09-14T08:41:46.004Z,2.50
2022-09-14T08:44:37.904Z,3.03
2022-09-14T08:47:11.348Z,2.90
2022-09-14T08:50:12.314Z,2.70
2022-09-14T08:52:43.762Z,2.97
2022-09-14T08:55:16.196Z,2.70
2022-09-14T08:57:50.475Z,2.85
2022-09-14T09:00:31.226Z,2.70
2022-09-14T09:03:25.942Z,2.60
2022-09-14T09:06:15.665Z,2.60
2022-09-14T09:09:02.719Z,2.63
2022-09-14T09:11:40.970Z,2.67
2022-09-14T09:14:32.132Z,3.00
2022-09-14T09:17:03.229Z,3.30
2022-09-14T09:19:58.939Z,3.05
2022-09-14T09:22:29.702Z,2.70
2022-09-14T09:24:58.663Z,3.03
2022-09-14T09:27:27.730Z,3.47
2022-09-14T09:29:54.387Z,3.30
2022-09-14T09:32:24.748Z,3.00
2022-09-14T09:34:51.797Z,3.10
2022-09-14T09:37:22.492Z,3.10
2022-09-14T09:39:50.318Z,3.17
2022-09-14T09:42:25.458Z,2.97
2022-09-14T09:45:05.826Z,3.25
2022-09-14T09:47:37.578Z,3.13
2022-09-14T09:50:26.178Z,2.97
2022-09-14T09:53:03.269Z,3.10
2022-09-14T09:55:38.918Z,3.33
2022-09-14T09:58:35.944Z,3.20
2022-09-14T10:01:12.062Z,3.20
2022-09-14T10:03:40.933Z,3.20
2022-09-14T10:06:13.035Z,3.03
2022-09-14T10:08:45.379Z,2.88
2022-09-14T10:11:48.242Z,3.20
2022-09-14T10:14:33.754Z,3.23
2022-09-14T10:17:18.337Z,3.40
2022-09-14T10:19:52.198Z,3.55
2022-09-14T10:22:21.922Z,3.50
2022-09-14T10:25:01.332Z,3.60
2022-09-14T10:27:35.730Z,3.57
2022-09-14T10:30:07.109Z,3.67
2022-09-14T10:32:34.640Z,3.50
2022-09-14T10:35:01.413Z,3.40
2022-09-14T10:37:49.238Z,3.10
2022-09-14T10:40:19.705Z,3.00
2022-09-14T10:43:17.210Z,3.45
2022-09-14T10:46:02.135Z,3.50
2022-09-14T10:48:54.352Z,3.20
2022-09-14T10:51:47.201Z,3.25
2022-09-14T10:54:46.109Z,2.90
2022-09-14T10:57:34.974Z,3.05
2022-09-14T11:00:22.983Z,3.10
2022-09-14T11:02:55.811Z,3.30
2022-09-14T11:05:27.923Z,3.08
2022-09-14T11:08:09.669Z,3.47
2022-09-14T11:10:41.320Z,3.47
2022-09-14T11:13:37.482Z,3.40
2022-09-14T11:16:09.833Z,3.35
2022-09-14T11:19:01.232Z,3.40
2022-09-14T11:21:57.003Z,3.40
2022-09-14T11:24:51.113Z,3.30
2022-09-14T11:27:23.321Z,2.90
2022-09-14T11:29:55.586Z,2.97
2022-09-14T11:32:31.458Z,2.80
2022-09-14T11:35:12.935Z,3.00
2022-09-14T11:37:45.424Z,2.67
2022-09-14T11:40:36.780Z,2.10
2022-09-14T11:43:14.040Z,1.88
2022-09-14T11:46:08.498Z,1.80
2022-09-14T11:48:42.841Z,1.63
2022-09-14T11:51:17.278Z,2.10
2022-09-14T11:53:45.059Z,1.70
2022-09-14T11:56:23.757Z,1.65
2022-09-14T11:58:50.883Z,1.90
2022-09-14T12:01:47.499Z,1.90
2022-09-14T12:04:17.512Z,2.20
2022-09-14T12:06:48.006Z,2.17
2022-09-14T12:09:17.562Z,2.30
2022-09-14T12:11:45.566Z,2.60
2022-09-14T12:14:24.317Z,3.33
2022-09-14T12:17:35.778Z,3.00
2022-09-14T12:20:32.661Z,2.95
2022-09-14T12:23:07.639Z,2.88
2022-09-14T12:25:36.637Z,3.00
2022-09-14T12:28:03.321Z,2.87
2022-09-14T12:30:50.296Z,2.88
2022-09-14T12:33:32.162Z,2.60
2022-09-14T12:36:12.304Z,2.80
2022-09-14T12:38:41.832Z,2.70
2022-09-14T12:41:08.374Z,2.73
2022-09-14T12:43:35.136Z,2.97
2022-09-14T12:46:02.870Z,2.60
2022-09-14T12:48:47.554Z,2.60
2022-09-14T12:51:19.728Z,2.30
2022-09-14T12:53:51.821Z,2.17
2022-09-14T12:56:34.473Z,2.40
2022-09-14T12:59:29.943Z,2.22
2022-09-14T13:02:27.845Z,2.40
2022-09-14T13:04:58.061Z,2.63
2022-09-14T13:07:30.698Z,2.20
2022-09-14T13:09:58.929Z,2.40
2022-09-14T13:12:44.455Z,2.25
2022-09-14T13:15:43.986Z,2.40
2022-09-14T13:18:19.363Z,2.63
2022-09-14T13:20:51.374Z,2.10
2022-09-14T13:23:28.571Z,2.30
2022-09-14T13:25:56.015Z,2.10
2022-09-14T13:28:26.636Z,2.50
2022-09-14T13:30:58.827Z,2.17
2022-09-14T13:33:26.032Z,2.47
2022-09-14T13:35:58.010Z,2.08
2022-09-14T13:38:32.662Z,2.20
2022-09-14T13:41:18.014Z,2.20
2022-09-14T13:43:47.395Z,2.00
2022-09-14T13:46:18.358Z,2.00
2022-09-14T13:48:47.113Z,2.08
2022-09-14T13:51:14.833Z,2.20
2022-09-14T13:53:50.013Z,2.40
2022-09-14T13:56:33.701Z,2.08
2022-09-14T13:59:10.565Z,2.53
2022-09-14T14:01:44.007Z,2.00
2022-09-14T14:04:35.706Z,2.30
2022-09-14T14:07:23.119Z,2.30
2022-09-14T14:09:55.261Z,2.40
2022-09-14T14:12:26.422Z,2.50
2022-09-14T14:15:09.371Z,2.40
2022-09-14T14:17:38.576Z,2.42
2022-09-14T14:20:24.099Z,2.50
2022-09-14T14:22:58.193Z,2.30
2022-09-14T14:25:45.791Z,2.50
2022-09-14T14:28:25.891Z,2.53
2022-09-14T14:30:54.209Z,2.13
2022-09-14T14:33:22.560Z,2.03
2022-09-14T14:35:54.614Z,2.10
2022-09-14T14:38:23.701Z,2.53
2022-09-14T14:40:55.097Z,2.53
2022-09-14T14:43:25.244Z,1.90
2022-09-14T14:45:58.040Z,1.50
2022-09-14T14:48:26.181Z,1.48
2022-09-14T14:50:55.476Z,1.80
2022-09-14T14:53:25.742Z,1.52
2022-09-14T14:55:53.184Z,1.50
2022-09-14T14:58:21.680Z,1.08
2022-09-14T15:00:48.454Z,1.40
2022-09-14T15:03:16.002Z,1.27
2022-09-14T15:05:44.664Z,1.30
2022-09-14T15:08:12.773Z,1.30
2022-09-14T15:10:40.150Z,1.30
2022-09-14T15:13:07.738Z,1.20
2022-09-14T15:15:34.623Z,1.23
2022-09-14T15:18:01.393Z,1.30
2022-09-14T15:20:28.251Z,1.10
2022-09-14T15:22:55.067Z,1.10
2022-09-14T15:25:21.820Z,1.50
2022-09-14T15:27:48.549Z,1.30
2022-09-14T15:30:15.695Z,1.20
2022-09-14T15:32:42.846Z,1.08
2022-09-14T15:35:12.879Z,1.00
2022-09-14T15:37:39.694Z,1.10
2022-09-14T15:40:07.058Z,1.20
2022-09-14T15:42:33.911Z,1.20
2022-09-14T15:45:00.621Z,0.93
2022-09-14T15:47:27.224Z,1.20
2022-09-14T15:49:53.974Z,1.23
2022-09-14T15:52:20.735Z,1.27
2022-09-14T15:54:48.432Z,1.10
2022-09-14T15:57:15.555Z,1.23
2022-09-14T15:59:42.261Z,1.00
2022-09-14T16:02:12.092Z,1.02
2022-09-14T16:04:39.315Z,0.90
2022-09-14T16:07:09.759Z,1.13
2022-09-14T16:09:41.301Z,1.10
2022-09-14T16:12:10.005Z,1.50
2022-09-14T16:14:37.570Z,1.48
2022-09-14T16:17:05.546Z,1.20
2022-09-14T16:19:32.681Z,1.20
2022-09-14T16:21:59.649Z,1.40
2022-09-14T16:24:27.357Z,1.20
2022-09-14T16:26:54.146Z,1.42
2022-09-14T16:29:24.078Z,1.40
2022-09-14T16:31:51.295Z,1.30
2022-09-14T16:34:24.126Z,1.60
2022-09-14T16:36:51.693Z,1.63
2022-09-14T16:39:22.952Z,1.50
2022-09-14T16:41:49.949Z,1.37
2022-09-14T16:44:21.990Z,2.42
2022-09-14T16:46:49.575Z,1.40
2022-09-14T16:49:17.533Z,1.10
2022-09-14T16:51:44.455Z,1.50
2022-09-14T16:54:16.136Z,1.37
2022-09-14T16:56:43.487Z,1.23
2022-09-14T16:59:10.609Z,1.30
2022-09-14T17:01:40.094Z,1.30
2022-09-14T17:04:15.959Z,1.33
2022-09-14T17:06:44.827Z,1.20
2022-09-14T17:09:15.521Z,1.33
2022-09-14T17:11:43.101Z,1.63
2022-09-14T17:14:14.246Z,1.38
2022-09-14T17:16:40.892Z,1.27
2022-09-14T17:19:07.825Z,1.30
2022-09-14T17:21:37.934Z,1.17
2022-09-14T17:24:05.777Z,1.40
2022-09-14T17:26:32.938Z,1.30
2022-09-14T17:29:00.677Z,1.42
2022-09-14T17:31:30.515Z,1.40
2022-09-14T17:34:00.273Z,1.42
2022-09-14T17:36:27.381Z,3.42
2022-09-14T17:38:57.962Z,3.00
2022-09-14T17:41:28.039Z,2.92
2022-09-14T17:43:57.569Z,5.67
2022-09-14T17:46:25.515Z,3.38
2022-09-14T17:48:52.292Z,2.33
2022-09-14T17:51:22.071Z,1.92
2022-09-14T17:53:53.757Z,2.50
2022-09-14T17:56:23.622Z,2.00
2022-09-14T17:58:58.736Z,1.80
2022-09-14T18:01:25.447Z,1.50
2022-09-14T18:03:55.594Z,1.60
2022-09-14T18:06:25.616Z,1.67
2022-09-14T18:08:57.582Z,1.60
2022-09-14T18:11:24.556Z,1.52
2022-09-14T18:13:51.580Z,1.90
2022-09-14T18:16:20.755Z,1.58
2022-09-14T18:18:47.740Z,1.70
2022-09-14T18:21:16.776Z,1.90
2022-09-14T18:23:43.873Z,1.80
2022-09-14T18:26:10.639Z,1.60
2022-09-14T18:28:37.464Z,1.73
2022-09-14T18:31:07.118Z,1.48
2022-09-14T18:33:34.605Z,1.50
2022-09-14T18:36:01.808Z,2.20
2022-09-14T18:38:30.003Z,2.28
2022-09-14T18:41:06.861Z,2.30
2022-09-14T18:43:34.036Z,1.50
2022-09-14T18:46:04.618Z,1.63
2022-09-14T18:48:31.445Z,1.30
2022-09-14T18:51:02.734Z,2.00
2022-09-14T18:53:29.441Z,2.00
2022-09-14T18:56:04.390Z,1.98
2022-09-14T18:58:35.381Z,2.20
2022-09-14T19:01:03.273Z,2.33
2022-09-14T19:03:31.103Z,1.90
2022-09-14T19:05:58.834Z,2.00
2022-09-14T19:08:25.616Z,2.42
2022-09-14T19:10:52.411Z,5.53
2022-09-14T19:13:19.027Z,2.40
2022-09-14T19:15:45.800Z,1.90
2022-09-14T19:18:12.693Z,2.17
2022-09-14T19:21:04.825Z,1.80
2022-09-14T19:23:27.071Z,2.00
2022-09-14T19:25:53.700Z,2.05
2022-09-14T19:28:20.345Z,1.98
2022-09-14T19:30:48.731Z,1.83
2022-09-14T19:33:15.483Z,2.10
2022-09-14T19:35:42.249Z,2.00
2022-09-14T19:38:08.890Z,1.70
2022-09-14T19:40:35.624Z,1.88
2022-09-14T19:43:02.392Z,2.10
2022-09-14T19:45:29.362Z,2.00
2022-09-14T19:47:55.990Z,1.83
2022-09-14T19:50:22.649Z,1.90
2022-09-14T19:52:49.361Z,1.60
2022-09-14T19:55:16.185Z,1.70
2022-09-14T19:57:42.767Z,1.70
2022-09-14T20:00:16.285Z,1.97
2022-09-14T20:02:46.026Z,1.92
2022-09-14T20:05:13.229Z,2.30
2022-09-14T20:07:39.933Z,1.95
2022-09-14T20:10:07.257Z,2.20
2022-09-14T20:12:34.046Z,2.30
2022-09-14T20:15:00.705Z,2.65
2022-09-14T20:17:27.454Z,2.40
2022-09-14T20:19:54.209Z,2.45
2022-09-14T20:22:20.849Z,2.45
2022-09-14T20:24:47.555Z,2.60
2022-09-14T20:27:14.152Z,2.70
2022-09-14T20:29:40.758Z,2.60
2022-09-14T20:32:07.378Z,2.53
2022-09-14T20:34:34.526Z,2.70
2022-09-14T20:37:01.254Z,2.60
2022-09-14T20:39:28.179Z,2.70
2022-09-14T20:41:54.869Z,2.33
2022-09-14T20:44:24.637Z,2.50
2022-09-14T20:46:51.845Z,2.92
2022-09-14T20:49:21.037Z,2.63
2022-09-14T20:51:48.210Z,2.80
2022-09-14T20:54:17.015Z,2.63
2022-09-14T20:56:44.803Z,2.40
2022-09-14T20:59:14.454Z,2.40
2022-09-14T21:01:43.286Z,2.83
2022-09-14T21:04:16.483Z,2.45
2022-09-14T21:06:46.352Z,2.53
2022-09-14T21:09:14.884Z,2.35
2022-09-14T21:11:42.153Z,2.50
2022-09-14T21:14:09.011Z,2.30
2022-09-14T21:16:38.418Z,2.42
2022-09-14T21:19:08.850Z,4.15
2022-09-14T21:21:35.979Z,6.50
2022-09-14T21:24:04.656Z,4.35
2022-09-14T21:26:34.514Z,3.70
2022-09-14T21:29:04.841Z,3.70
2022-09-14T21:31:32.172Z,4.38
2022-09-14T21:34:01.651Z,3.10
2022-09-14T21:36:34.918Z,2.40
2022-09-14T21:39:08.517Z,2.30
2022-09-14T21:41:39.751Z,2.50
2022-09-14T21:44:06.563Z,2.20
2022-09-14T21:46:33.708Z,2.30
2022-09-14T21:49:00.641Z,2.15
2022-09-14T21:51:30.482Z,3.60
2022-09-14T21:54:02.345Z,6.07
2022-09-14T21:56:30.899Z,7.25
2022-09-14T21:58:59.981Z,8.38
2022-09-14T22:01:27.836Z,2.90
2022-09-14T22:03:55.675Z,7.10
2022-09-14T22:06:24.709Z,4.03
2022-09-14T22:08:52.434Z,2.25
2022-09-14T22:11:29.052Z,2.35
2022-09-14T22:14:01.247Z,2.22
2022-09-14T22:16:29.795Z,2.30
2022-09-14T22:18:59.339Z,2.42
2022-09-14T22:21:27.941Z,2.30
2022-09-14T22:23:56.868Z,2.47
2022-09-14T22:26:25.162Z,2.22
2022-09-14T22:28:53.612Z,2.40
2022-09-14T22:31:22.599Z,2.50
2022-09-14T22:33:50.531Z,2.60
2022-09-14T22:36:17.739Z,2.50
2022-09-14T22:38:45.659Z,2.60
2022-09-14T22:41:15.152Z,2.60
2022-09-14T22:43:41.778Z,3.13
2022-09-14T22:46:09.170Z,3.00
2022-09-14T22:48:36.483Z,2.70
2022-09-14T22:51:05.034Z,2.80
2022-09-14T22:53:32.282Z,3.10
2022-09-14T22:55:59.316Z,2.83
2022-09-14T22:58:27.845Z,3.03
2022-09-14T23:00:54.520Z,3.00
2022-09-14T23:03:21.245Z,3.03
2022-09-14T23:05:53.294Z,3.20
2022-09-14T23:08:19.956Z,3.20
2022-09-14T23:10:47.764Z,3.33
2022-09-14T23:13:15.461Z,3.00
2022-09-14T23:15:42.434Z,3.17
2022-09-14T23:18:09.690Z,3.20
2022-09-14T23:20:44.015Z,3.05
2022-09-14T23:23:11.697Z,3.20
2022-09-14T23:25:39.996Z,3.22
2022-09-14T23:28:09.507Z,3.08
2022-09-14T23:30:36.134Z,3.17
2022-09-14T23:33:02.844Z,3.40
2022-09-14T23:35:29.874Z,3.33
2022-09-14T23:37:56.746Z,2.97
2022-09-14T23:40:23.555Z,2.90
2022-09-14T23:42:50.411Z,2.93
2022-09-14T23:45:17.133Z,3.10
2022-09-14T23:47:45.965Z,3.00
2022-09-14T23:50:12.638Z,3.17
2022-09-14T23:52:40.243Z,3.80
2022-09-14T23:55:07.617Z,2.73
2022-09-14T23:57:34.256Z,2.80
